createdAt,value
2018-08-09T00:00:39.332Z,6.77
2018-08-09T00:03:07.082Z,7.03
2018-08-09T00:05:34.714Z,7.43
2018-08-09T00:08:02.371Z,6.83
2018-08-09T00:10:30.068Z,7.85
2018-08-09T00:12:57.742Z,7.17
2018-08-09T00:15:25.403Z,7.07
2018-08-09T00:17:53.116Z,6.80
2018-08-09T00:20:20.783Z,6.90
2018-08-09T00:22:48.399Z,7.00
2018-08-09T00:25:16.239Z,7.50
2018-08-09T00:27:43.906Z,6.97
2018-08-09T00:30:11.492Z,7.37
2018-08-09T00:32:40.206Z,7.37
2018-08-09T00:35:07.819Z,6.50
2018-08-09T00:37:35.434Z,7.53
2018-08-09T00:40:03.138Z,7.17
2018-08-09T00:42:30.804Z,7.30
2018-08-09T00:44:58.516Z,7.07
2018-08-09T00:47:26.239Z,8.37
2018-08-09T00:49:53.859Z,7.03
2018-08-09T00:52:21.555Z,7.78
2018-08-09T00:54:49.208Z,6.80
2018-08-09T00:57:16.838Z,7.47
2018-08-09T00:59:44.484Z,6.43
2018-08-09T01:02:12.151Z,6.80
2018-08-09T01:04:39.842Z,6.87
2018-08-09T01:07:07.445Z,6.40
2018-08-09T01:09:35.172Z,7.37
2018-08-09T01:12:02.885Z,6.70
2018-08-09T01:14:30.492Z,7.57
2018-08-09T01:16:58.205Z,6.97
2018-08-09T01:19:25.841Z,7.10
2018-08-09T01:21:53.454Z,6.97
2018-08-09T01:24:21.127Z,6.87
2018-08-09T01:26:48.744Z,7.13
2018-08-09T01:29:16.406Z,6.50
2018-08-09T01:31:44.091Z,7.73
2018-08-09T01:34:11.746Z,8.03
2018-08-09T01:36:39.436Z,6.67
2018-08-09T01:39:08.343Z,6.53
2018-08-09T01:41:36.004Z,7.20
2018-08-09T01:44:04.960Z,6.67
2018-08-09T01:46:32.748Z,6.63
2018-08-09T01:49:00.768Z,7.40
2018-08-09T01:51:29.134Z,6.87
2018-08-09T01:53:56.874Z,7.20
2018-08-09T01:56:24.571Z,6.47
2018-08-09T01:58:52.786Z,6.87
2018-08-09T02:01:20.808Z,7.17
2018-08-09T02:03:48.462Z,6.43
2018-08-09T02:06:17.020Z,7.53
2018-08-09T02:08:45.174Z,7.10
2018-08-09T02:11:13.019Z,6.87
2018-08-09T02:13:41.112Z,6.90
2018-08-09T02:16:09.835Z,6.80
2018-08-09T02:18:37.903Z,6.80
2018-08-09T02:21:05.666Z,7.67
2018-08-09T02:23:33.611Z,6.67
2018-08-09T02:26:01.265Z,8.03
2018-08-09T02:28:28.921Z,7.33
2018-08-09T02:30:56.603Z,7.62
2018-08-09T02:33:24.268Z,7.62
2018-08-09T02:35:51.885Z,7.13
2018-08-09T02:38:19.653Z,7.30
2018-08-09T02:40:47.337Z,6.43
2018-08-09T02:43:14.989Z,6.77
2018-08-09T02:45:42.643Z,6.80
2018-08-09T02:48:10.240Z,7.23
2018-08-09T02:50:37.905Z,7.50
2018-08-09T02:53:05.580Z,7.35
2018-08-09T02:55:33.213Z,7.50
2018-08-09T02:58:00.856Z,7.80
2018-08-09T03:00:28.614Z,8.00
2018-08-09T03:02:56.248Z,7.40
2018-08-09T03:05:23.928Z,7.40
2018-08-09T03:07:51.580Z,7.20
2018-08-09T03:10:19.362Z,7.37
2018-08-09T03:12:46.955Z,7.33
2018-08-09T03:15:14.626Z,6.97
2018-08-09T03:17:42.270Z,7.45
2018-08-09T03:20:09.940Z,7.45
2018-08-09T03:22:37.636Z,7.97
2018-08-09T03:25:05.381Z,6.97
2018-08-09T03:27:33.034Z,6.97
2018-08-09T03:30:00.733Z,7.50
2018-08-09T03:32:28.508Z,6.70
2018-08-09T03:34:56.140Z,7.00
2018-08-09T03:37:24.826Z,7.30
2018-08-09T03:39:52.475Z,7.12
2018-08-09T03:42:20.100Z,7.60
2018-08-09T03:44:47.752Z,6.97
2018-08-09T03:47:17.402Z,7.30
2018-08-09T03:49:45.112Z,8.40
2018-08-09T03:52:12.842Z,7.00
2018-08-09T03:54:40.470Z,6.77
2018-08-09T03:57:08.215Z,6.55
2018-08-09T03:59:35.954Z,7.08
2018-08-09T04:02:03.623Z,7.90
2018-08-09T04:04:31.253Z,6.70
2018-08-09T04:06:58.942Z,6.30
2018-08-09T04:09:26.601Z,6.67
2018-08-09T04:11:56.264Z,7.77
2018-08-09T04:14:23.986Z,6.97
2018-08-09T04:16:51.650Z,6.47
2018-08-09T04:19:20.351Z,7.40
2018-08-09T04:21:48.024Z,7.37
2018-08-09T04:24:15.663Z,6.63
2018-08-09T04:26:43.285Z,6.62
2018-08-09T04:29:10.936Z,6.95
2018-08-09T04:31:38.563Z,6.93
2018-08-09T04:34:06.303Z,7.33
2018-08-09T04:36:33.947Z,7.77
2018-08-09T04:39:01.590Z,6.23
2018-08-09T04:41:29.196Z,6.60
2018-08-09T04:43:56.845Z,6.37
2018-08-09T04:46:24.464Z,7.77
2018-08-09T04:48:52.073Z,6.93
2018-08-09T04:51:19.756Z,6.30
2018-08-09T04:53:47.374Z,6.53
2018-08-09T04:56:15.127Z,5.93
2018-08-09T04:58:42.832Z,6.55
2018-08-09T05:01:10.581Z,6.97
2018-08-09T05:03:38.208Z,6.73
2018-08-09T05:06:07.811Z,5.80
2018-08-09T05:08:35.555Z,6.27
2018-08-09T05:11:03.444Z,6.80
2018-08-09T05:13:31.242Z,7.40
2018-08-09T05:15:58.962Z,7.17
2018-08-09T05:18:26.579Z,6.87
2018-08-09T05:20:54.305Z,7.85
2018-08-09T05:23:22.016Z,6.62
2018-08-09T05:25:50.181Z,6.60
2018-08-09T05:28:17.908Z,8.03
2018-08-09T05:30:45.595Z,7.60
2018-08-09T05:33:13.336Z,6.87
2018-08-09T05:35:44.321Z,7.35
2018-08-09T05:38:12.008Z,7.50
2018-08-09T05:40:39.707Z,8.57
2018-08-09T05:43:07.414Z,7.70
2018-08-09T05:45:37.124Z,7.75
2018-08-09T05:48:05.060Z,8.03
2018-08-09T05:50:32.773Z,8.27
2018-08-09T05:53:07.739Z,7.50
2018-08-09T05:55:35.442Z,7.27
2018-08-09T05:58:03.229Z,7.20
2018-08-09T06:00:32.429Z,7.70
2018-08-09T06:03:00.528Z,7.37
2018-08-09T06:05:28.525Z,8.90
2018-08-09T06:07:56.280Z,8.03
2018-08-09T06:10:24.096Z,6.90
2018-08-09T06:12:51.824Z,7.43
2018-08-09T06:15:19.644Z,7.00
2018-08-09T06:17:47.560Z,7.77
2018-08-09T06:20:15.490Z,7.90
2018-08-09T06:22:43.552Z,6.73
2018-08-09T06:25:11.502Z,7.93
2018-08-09T06:27:39.395Z,8.40
2018-08-09T06:30:08.807Z,7.47
2018-08-09T06:32:37.078Z,6.37
2018-08-09T06:35:07.440Z,7.07
2018-08-09T06:37:35.681Z,6.60
2018-08-09T06:40:04.611Z,7.10
2018-08-09T06:42:36.481Z,9.80
2018-08-09T06:45:04.682Z,7.67
2018-08-09T06:47:32.884Z,7.07
2018-08-09T06:50:00.764Z,6.63
2018-08-09T06:52:28.782Z,6.23
2018-08-09T06:54:56.735Z,6.90
2018-08-09T06:57:24.767Z,6.60
2018-08-09T06:59:54.500Z,6.23
2018-08-09T07:02:22.502Z,7.30
2018-08-09T07:04:50.296Z,6.57
2018-08-09T07:07:18.287Z,6.77
2018-08-09T07:09:46.103Z,6.73
2018-08-09T07:12:14.149Z,6.97
2018-08-09T07:14:42.013Z,6.50
2018-08-09T07:17:10.904Z,6.37
2018-08-09T07:19:50.603Z,6.00
2018-08-09T07:22:18.856Z,7.00
2018-08-09T07:24:46.779Z,6.70
2018-08-09T07:27:14.643Z,6.60
2018-08-09T07:29:42.981Z,6.77
2018-08-09T07:32:14.231Z,6.63
2018-08-09T07:34:41.828Z,7.50
2018-08-09T07:37:09.629Z,7.37
2018-08-09T07:39:38.424Z,7.13
2018-08-09T07:42:06.066Z,6.83
2018-08-09T07:44:33.807Z,6.77
2018-08-09T07:47:01.504Z,6.90
2018-08-09T07:49:29.553Z,6.90
2018-08-09T07:51:57.259Z,7.43
2018-08-09T07:54:25.054Z,6.97
2018-08-09T07:56:53.141Z,6.87
2018-08-09T07:59:24.287Z,6.73
2018-08-09T08:01:51.978Z,6.47
2018-08-09T08:04:19.679Z,7.27
2018-08-09T08:06:47.752Z,7.60
2018-08-09T08:09:15.556Z,6.50
2018-08-09T08:11:43.268Z,6.83
2018-08-09T08:14:11.040Z,6.67
2018-08-09T08:16:39.021Z,7.20
2018-08-09T08:19:07.011Z,6.50
2018-08-09T08:21:34.863Z,7.37
2018-08-09T08:24:02.724Z,6.40
2018-08-09T08:26:37.356Z,6.63
2018-08-09T08:29:05.336Z,5.47
2018-08-09T08:31:33.248Z,5.77
2018-08-09T08:34:01.118Z,5.53
2018-08-09T08:36:28.925Z,5.10
2018-08-09T08:38:56.797Z,6.77
2018-08-09T08:41:24.560Z,5.40
2018-08-09T08:43:52.302Z,5.00
2018-08-09T08:46:20.040Z,5.33
2018-08-09T08:48:47.740Z,5.43
2018-08-09T08:51:15.556Z,5.13
2018-08-09T08:53:43.371Z,5.47
2018-08-09T08:56:11.167Z,5.40
2018-08-09T08:58:39.482Z,5.27
2018-08-09T09:01:07.508Z,5.20
2018-08-09T09:03:35.289Z,5.80
2018-08-09T09:06:02.956Z,5.87
2018-08-09T09:08:30.627Z,6.00
2018-08-09T09:10:58.427Z,5.53
2018-08-09T09:13:26.178Z,5.05
2018-08-09T09:15:53.899Z,5.47
2018-08-09T09:18:21.697Z,5.42
2018-08-09T09:20:49.364Z,5.25
2018-08-09T09:23:17.036Z,5.80
2018-08-09T09:25:44.729Z,5.37
2018-08-09T09:28:12.419Z,5.53
2018-08-09T09:30:40.072Z,5.73
2018-08-09T09:33:07.828Z,5.40
2018-08-09T09:35:35.511Z,5.93
2018-08-09T09:38:03.185Z,5.75
2018-08-09T09:40:30.839Z,5.10
2018-08-09T09:42:58.623Z,5.40
2018-08-09T09:45:26.332Z,5.43
2018-08-09T09:47:53.966Z,5.10
2018-08-09T09:50:21.662Z,4.20
2018-08-09T09:52:49.483Z,4.67
2018-08-09T09:55:17.283Z,4.90
2018-08-09T09:57:45.189Z,5.03
2018-08-09T10:00:18.780Z,4.47
2018-08-09T10:02:46.737Z,4.13
2018-08-09T10:05:14.834Z,5.23
2018-08-09T10:07:42.546Z,4.47
2018-08-09T10:10:11.136Z,5.67
2018-08-09T10:12:39.007Z,4.93
2018-08-09T10:15:06.748Z,4.97
2018-08-09T10:17:34.567Z,4.63
2018-08-09T10:20:02.320Z,4.40
2018-08-09T10:22:30.065Z,4.63
2018-08-09T10:24:57.880Z,4.53
2018-08-09T10:27:26.624Z,4.57
2018-08-09T10:29:54.298Z,4.20
2018-08-09T10:32:22.013Z,4.30
2018-08-09T10:34:50.668Z,4.47
2018-08-09T10:37:18.896Z,4.37
2018-08-09T10:42:41.908Z,4.03
2018-08-09T10:45:09.994Z,4.40
2018-08-09T10:47:37.819Z,4.10
2018-08-09T10:50:05.871Z,4.43
2018-08-09T10:52:34.384Z,4.80
2018-08-09T10:55:02.424Z,4.73
2018-08-09T10:57:30.396Z,4.73
2018-08-09T10:59:58.268Z,5.03
2018-08-09T11:02:42.608Z,4.43
2018-08-09T11:05:10.514Z,4.57
2018-08-09T11:07:38.506Z,4.10
2018-08-09T11:10:07.600Z,4.40
2018-08-09T11:12:35.361Z,4.30
2018-08-09T11:15:03.247Z,4.53
2018-08-09T11:17:30.904Z,4.10
2018-08-09T11:19:58.709Z,4.27
2018-08-09T11:22:26.368Z,4.13
2018-08-09T11:24:54.081Z,4.40
2018-08-09T11:27:21.830Z,3.70
2018-08-09T11:29:49.522Z,4.35
2018-08-09T11:32:17.135Z,4.97
2018-08-09T11:34:44.841Z,9.53
2018-08-09T11:37:12.517Z,5.47
2018-08-09T11:39:40.178Z,4.47
2018-08-09T11:42:07.962Z,4.30
2018-08-09T11:44:35.668Z,4.63
2018-08-09T11:47:03.630Z,4.70
2018-08-09T11:49:31.422Z,4.30
2018-08-09T11:51:59.263Z,4.30
2018-08-09T11:54:26.939Z,4.93
2018-08-09T11:56:54.684Z,4.83
2018-08-09T11:59:22.378Z,4.60
2018-08-09T12:01:50.101Z,5.00
2018-08-09T12:04:17.806Z,5.90
2018-08-09T12:06:45.494Z,5.20
2018-08-09T12:09:13.152Z,5.53
2018-08-09T12:11:40.922Z,4.50
2018-08-09T12:14:08.704Z,5.30
2018-08-09T12:16:36.614Z,6.03
2018-08-09T12:19:04.742Z,5.57
2018-08-09T12:21:32.391Z,5.80
2018-08-09T12:24:00.176Z,5.62
2018-08-09T12:26:27.991Z,4.55
2018-08-09T12:28:55.735Z,6.37
2018-08-09T12:31:23.583Z,5.60
2018-08-09T12:33:51.301Z,6.00
2018-08-09T12:36:19.078Z,5.10
2018-08-09T12:38:46.814Z,6.20
2018-08-09T12:41:14.625Z,5.97
2018-08-09T12:43:42.315Z,5.57
2018-08-09T12:46:10.029Z,5.90
2018-08-09T12:48:37.756Z,12.33
2018-08-09T12:51:05.483Z,6.17
2018-08-09T12:53:34.166Z,6.50
2018-08-09T12:56:03.077Z,5.67
2018-08-09T12:58:30.824Z,5.53
2018-08-09T13:00:58.872Z,5.33
2018-08-09T13:03:26.717Z,5.80
2018-08-09T13:05:54.663Z,6.67
2018-08-09T13:08:22.479Z,5.83
2018-08-09T13:10:58.641Z,5.83
2018-08-09T13:13:26.518Z,6.57
2018-08-09T13:15:54.363Z,5.83
2018-08-09T13:18:22.116Z,6.20
2018-08-09T13:20:50.056Z,5.70
2018-08-09T13:23:17.826Z,6.33
2018-08-09T13:25:45.752Z,6.00
2018-08-09T13:28:13.442Z,7.23
2018-08-09T13:30:41.668Z,11.67
2018-08-09T13:33:27.815Z,6.40
2018-08-09T13:35:55.638Z,7.50
2018-08-09T13:38:23.638Z,6.87
2018-08-09T13:40:51.504Z,6.10
2018-08-09T13:43:19.769Z,6.90
2018-08-09T13:45:47.750Z,6.07
2018-08-09T13:48:15.609Z,6.47
2018-08-09T13:50:43.448Z,6.20
2018-08-09T13:53:11.124Z,6.23
2018-08-09T13:55:39.026Z,6.70
2018-08-09T13:58:07.155Z,6.30
2018-08-09T14:00:34.989Z,6.70
2018-08-09T14:03:03.076Z,6.67
2018-08-09T14:05:31.105Z,6.80
2018-08-09T14:07:59.020Z,6.77
2018-08-09T14:10:27.287Z,7.00
2018-08-09T14:12:55.147Z,7.10
2018-08-09T14:15:23.021Z,7.13
2018-08-09T14:17:51.275Z,7.37
2018-08-09T14:20:25.690Z,6.70
2018-08-09T14:22:53.694Z,6.93
2018-08-09T14:25:21.335Z,7.10
2018-08-09T14:27:49.201Z,7.10
2018-08-09T14:30:17.591Z,6.90
2018-08-09T14:32:46.564Z,6.83
2018-08-09T14:35:15.580Z,6.80
2018-08-09T14:37:44.246Z,7.27
2018-08-09T14:40:12.752Z,6.40
2018-08-09T14:42:40.655Z,7.00
2018-08-09T14:45:11.389Z,7.10
2018-08-09T14:47:39.545Z,7.33
2018-08-09T14:50:18.532Z,6.77
2018-08-09T14:55:25.933Z,6.57
2018-08-09T14:57:53.789Z,7.00
2018-08-09T15:00:27.562Z,7.13
2018-08-09T15:02:55.695Z,6.60
2018-08-09T15:05:23.432Z,7.17
2018-08-09T15:07:51.144Z,6.67
2018-08-09T15:10:18.865Z,6.90
2018-08-09T15:12:46.664Z,6.77
2018-08-09T15:15:20.779Z,6.47
2018-08-09T15:17:48.619Z,6.30
2018-08-09T15:20:16.375Z,6.47
2018-08-09T15:22:44.114Z,6.17
2018-08-09T15:25:12.158Z,6.80
2018-08-09T15:27:40.021Z,6.60
2018-08-09T15:30:13.388Z,6.00
2018-08-09T15:32:41.186Z,6.63
2018-08-09T15:35:08.949Z,6.33
2018-08-09T15:37:36.909Z,6.30
2018-08-09T15:40:05.453Z,6.20
2018-08-09T15:42:33.291Z,6.63
2018-08-09T15:45:01.244Z,12.23
2018-08-09T15:47:33.535Z,7.23
2018-08-09T15:50:01.471Z,6.27
2018-08-09T15:52:29.460Z,6.43
2018-08-09T15:54:57.371Z,7.00
2018-08-09T15:57:25.148Z,7.10
2018-08-09T15:59:52.842Z,6.17
2018-08-09T16:02:20.614Z,6.63
2018-08-09T16:04:48.359Z,6.07
2018-08-09T16:07:16.079Z,8.67
2018-08-09T16:09:43.805Z,7.87
2018-08-09T16:12:11.649Z,6.35
2018-08-09T16:14:39.352Z,7.28
2018-08-09T16:17:07.244Z,6.45
2018-08-09T16:19:35.015Z,6.65
2018-08-09T16:22:02.827Z,6.10
2018-08-09T16:24:48.332Z,6.60
2018-08-09T16:27:16.163Z,7.60
2018-08-09T16:29:43.923Z,5.93
2018-08-09T16:32:11.801Z,6.13
2018-08-09T16:34:39.491Z,6.80
2018-08-09T16:37:07.265Z,8.10
2018-08-09T16:39:35.057Z,7.17
2018-08-09T16:42:02.869Z,6.50
2018-08-09T16:44:30.599Z,5.70
2018-08-09T16:46:59.716Z,5.67
2018-08-09T16:49:27.447Z,5.67
2018-08-09T16:51:55.200Z,5.80
2018-08-09T16:54:22.972Z,6.17
2018-08-09T16:56:50.681Z,16.47
2018-08-09T16:59:18.471Z,11.20
2018-08-09T17:01:46.232Z,5.62
2018-08-09T17:04:14.012Z,5.33
2018-08-09T17:06:53.245Z,5.60
2018-08-09T17:09:20.993Z,6.57
2018-08-09T17:11:48.824Z,5.33
2018-08-09T17:14:16.690Z,8.90
2018-08-09T17:16:44.488Z,7.90
2018-08-09T17:19:12.246Z,5.70
2018-08-09T17:21:40.113Z,5.90
2018-08-09T17:24:09.107Z,5.47
2018-08-09T17:26:37.008Z,5.47
2018-08-09T17:29:05.500Z,5.10
2018-08-09T17:31:33.265Z,5.33
2018-08-09T17:34:01.060Z,5.70
2018-08-09T17:36:28.831Z,5.47
2018-08-09T17:38:56.532Z,7.27
2018-08-09T17:41:24.165Z,7.10
2018-08-09T17:43:51.988Z,5.62
2018-08-09T17:46:19.742Z,4.83
2018-08-09T17:48:47.504Z,10.85
2018-08-09T17:51:15.310Z,5.25
2018-08-09T17:53:43.031Z,8.08
2018-08-09T17:56:10.770Z,6.13
2018-08-09T17:58:38.480Z,5.27
2018-08-09T18:01:06.435Z,6.57
2018-08-09T18:03:34.224Z,5.37
2018-08-09T18:06:02.173Z,5.03
2018-08-09T18:08:29.934Z,4.97
2018-08-09T18:10:58.035Z,4.60
2018-08-09T18:13:31.102Z,5.00
2018-08-09T18:15:58.838Z,4.87
2018-08-09T18:18:26.572Z,9.30
2018-08-09T18:20:54.402Z,4.80
2018-08-09T18:23:22.098Z,5.00
2018-08-09T18:25:49.828Z,5.20
2018-08-09T18:28:17.512Z,5.47
2018-08-09T18:30:45.226Z,11.48
2018-08-09T18:33:12.892Z,10.07
2018-08-09T18:35:40.614Z,5.77
2018-08-09T18:38:08.455Z,6.40
2018-08-09T18:40:36.097Z,5.60
2018-08-09T18:43:04.013Z,5.70
2018-08-09T18:45:31.803Z,5.27
2018-08-09T18:47:59.515Z,5.97
2018-08-09T18:50:28.468Z,5.60
2018-08-09T18:53:10.486Z,9.07
2018-08-09T18:55:38.247Z,5.07
2018-08-09T18:58:06.016Z,6.80
2018-08-09T19:00:33.757Z,5.93
2018-08-09T19:03:01.487Z,5.60
2018-08-09T19:05:29.250Z,4.40
2018-08-09T19:07:57.155Z,10.25
2018-08-09T19:10:27.780Z,3.60
2018-08-09T19:12:56.492Z,3.73
2018-08-09T19:15:30.500Z,3.70
2018-08-09T19:18:02.458Z,3.40
2018-08-09T19:20:36.445Z,3.67
2018-08-09T19:23:05.271Z,3.60
2018-08-09T19:25:33.094Z,3.30
2018-08-09T19:28:00.928Z,3.23
2018-08-09T19:30:29.721Z,4.07
2018-08-09T19:32:57.562Z,3.53
2018-08-09T19:35:25.360Z,3.20
2018-08-09T19:37:53.116Z,3.40
2018-08-09T19:40:22.311Z,3.30
2018-08-09T19:42:50.137Z,3.47
2018-08-09T19:45:18.511Z,3.60
2018-08-09T19:47:46.359Z,3.27
2018-08-09T19:50:15.971Z,3.27
2018-08-09T19:52:43.760Z,3.73
2018-08-09T19:55:13.003Z,3.47
2018-08-09T19:57:42.055Z,2.90
2018-08-09T20:00:11.864Z,3.73
2018-08-09T20:02:39.631Z,3.70
2018-08-09T20:05:08.514Z,3.57
2018-08-09T20:07:36.160Z,2.70
2018-08-09T20:10:04.244Z,3.40
2018-08-09T20:12:32.070Z,3.30
2018-08-09T20:14:59.756Z,3.40
2018-08-09T20:17:27.640Z,3.33
2018-08-09T20:19:56.050Z,3.47
2018-08-09T20:22:23.804Z,3.53
2018-08-09T20:24:51.548Z,3.23
2018-08-09T20:27:19.383Z,3.00
2018-08-09T20:29:47.126Z,3.27
2018-08-09T20:32:20.737Z,3.10
2018-08-09T20:34:48.604Z,3.20
2018-08-09T20:37:16.280Z,3.87
2018-08-09T20:39:44.083Z,3.10
2018-08-09T20:42:11.870Z,3.17
2018-08-09T20:45:06.321Z,2.77
2018-08-09T20:47:34.280Z,3.03
2018-08-09T20:50:04.474Z,3.20
2018-08-09T20:52:32.284Z,3.60
2018-08-09T20:55:08.710Z,3.87
2018-08-09T20:57:36.973Z,3.13
2018-08-09T21:00:11.941Z,3.17
2018-08-09T21:02:40.795Z,4.23
2018-08-09T21:05:21.827Z,3.27
2018-08-09T21:07:50.298Z,3.70
2018-08-09T21:10:21.711Z,3.33
2018-08-09T21:12:51.329Z,3.80
2018-08-09T21:15:21.679Z,3.10
2018-08-09T21:17:50.075Z,3.43
2018-08-09T21:20:17.837Z,3.37
2018-08-09T21:22:53.043Z,2.90
2018-08-09T21:25:23.329Z,3.43
2018-08-09T21:27:54.868Z,2.63
2018-08-09T21:30:25.612Z,2.80
2018-08-09T21:32:56.200Z,2.30
2018-08-09T21:35:26.419Z,2.63
2018-08-09T21:37:58.428Z,2.13
2018-08-09T21:40:28.368Z,2.30
2018-08-09T21:42:57.242Z,2.47
2018-08-09T21:45:26.063Z,2.17
2018-08-09T21:47:56.439Z,2.43
2018-08-09T21:50:25.788Z,2.60
2018-08-09T21:52:58.284Z,2.40
2018-08-09T21:55:33.181Z,2.37
2018-08-09T21:58:01.773Z,1.87
2018-08-09T22:00:49.585Z,2.00
2018-08-09T22:06:15.871Z,2.00
2018-08-09T22:08:49.719Z,2.43
2018-08-09T22:11:27.216Z,4.53
2018-08-09T22:14:01.642Z,2.27
2018-08-09T22:16:36.404Z,2.00
2018-08-09T22:19:10.531Z,1.87
2018-08-09T22:21:45.625Z,2.37
2018-08-09T22:24:17.122Z,2.00
2018-08-09T22:26:47.795Z,1.80
2018-08-09T22:29:17.538Z,1.87
2018-08-09T22:31:47.599Z,1.73
2018-08-09T22:34:16.646Z,2.03
2018-08-09T22:36:50.718Z,1.80
2018-08-09T22:39:20.293Z,1.93
2018-08-09T22:41:52.094Z,1.80
2018-08-09T22:44:21.967Z,2.20
2018-08-09T22:46:51.132Z,1.80
2018-08-09T22:49:20.158Z,2.30
2018-08-09T22:51:49.940Z,2.00
2018-08-09T22:54:22.891Z,2.37
2018-08-09T22:56:52.382Z,1.73
2018-08-09T22:59:22.036Z,2.10
2018-08-09T23:01:50.721Z,1.73
2018-08-09T23:04:19.417Z,2.07
2018-08-09T23:06:48.315Z,2.20
2018-08-09T23:09:17.275Z,2.07
2018-08-09T23:11:45.060Z,2.10
2018-08-09T23:14:12.873Z,1.90
2018-08-09T23:16:40.765Z,1.80
2018-08-09T23:19:08.626Z,2.30
2018-08-09T23:21:39.652Z,2.00
2018-08-09T23:24:07.390Z,1.77
2018-08-09T23:26:35.152Z,2.40
2018-08-09T23:29:02.960Z,2.07
2018-08-09T23:31:30.770Z,2.10
2018-08-09T23:34:02.351Z,2.17
2018-08-09T23:36:30.118Z,2.07
2018-08-09T23:38:57.932Z,2.07
2018-08-09T23:41:25.768Z,1.90
2018-08-09T23:43:53.558Z,2.20
2018-08-09T23:46:21.282Z,2.30
2018-08-09T23:48:49.063Z,2.10
2018-08-09T23:51:16.830Z,1.70
2018-08-09T23:53:44.484Z,2.12
2018-08-09T23:56:12.289Z,1.67
2018-08-09T23:58:40.073Z,1.53
